Lisbon Falls, Maine
Current Conditions -  °F | °C
As of 3:55 AM on Wednesday 22 Oct 2014 (Local Time) from KLEW Reporting Station
Overcast Overcast  
Wind Chill: 38°   Ceiling: 800
Heat Index: 45°   Visibility: 5mi
Dew Point: 43°   Wind: 13mph
Humidity: 93%   Direction: 30°NNE
Pressure: 30.1"   Gusts: 17mph
Location:  44°N, 70.06°W
Report Text: KLEW 220755Z AUTO 03011G15KT 5SM BKN008 OVC014 07/06 A3010 RMK AO1
Loading
Personal Weather Stations






























Interactive Weather Map
Tropical Storm Tracking
New forecast layout! Learn more

10-Day Weather Forecast

Advertisements
Track Severe Weather on mobile